Time;durP1;ratioP1;P1;durP2;ratioP2;P2;SDS_P1;SDS_P2;PMS_P1;PMS_P2;Temp;Humidity;BMP_temperature;BMP_pressure;BME280_temperature;BME280_humidity;BME280_pressure;Samples;Min_cycle;Max_cycle;Signal;HPM_P1;HPM_P2
2021/01/26 00:00:39;;;;;;;4.53;1.17;;;2.10;99.90;;;;;;5033838;28;20107;-69
2021/01/26 00:03:11;;;;;;;2.40;0.93;;;2.10;99.90;;;;;;5017699;28;20136;-68
2021/01/26 00:05:57;;;;;;;4.40;0.85;;;2.00;99.90;;;;;;5093186;27;20051;-69
2021/01/26 00:08:35;;;;;;;3.05;0.90;;;2.10;99.90;;;;;;5132516;27;20066;-69
2021/01/26 00:11:19;;;;;;;3.50;1.15;;;2.10;99.90;;;;;;5137159;27;20051;-69
2021/01/26 00:18:11;;;;;;;3.03;0.82;;;2.10;99.90;;;;;;5130343;27;20065;-69
2021/01/26 00:20:48;;;;;;;4.78;1.35;;;2.10;99.90;;;;;;5137151;27;20074;-69
2021/01/26 00:23:17;;;;;;;3.03;1.27;;;2.20;99.90;;;;;;5127982;27;20086;-69
2021/01/26 00:33:10;;;;;;;3.08;0.95;;;2.30;99.90;;;;;;5134722;27;20042;-69
2021/01/26 00:35:44;;;;;;;3.95;1.38;;;2.30;99.90;;;;;;5135860;27;20539;-69
2021/01/26 00:38:13;;;;;;;5.10;2.47;;;2.30;99.90;;;;;;5118824;27;20074;-69
2021/01/26 00:40:42;;;;;;;5.32;1.63;;;2.30;99.90;;;;;;5137224;27;20482;-69
2021/01/26 00:43:16;;;;;;;4.75;1.63;;;2.20;99.90;;;;;;5116594;27;20047;-69
2021/01/26 00:45:48;;;;;;;6.35;2.45;;;2.20;99.90;;;;;;5083075;28;20051;-69
2021/01/26 00:48:16;;;;;;;5.95;2.03;;;2.10;99.90;;;;;;5118115;27;20451;-69
2021/01/26 00:50:50;;;;;;;6.50;2.47;;;2.00;99.90;;;;;;5118958;27;20055;-69
2021/01/26 01:00:47;;;;;;;7.68;2.53;;;1.90;99.90;;;;;;5136228;27;20046;-68
2021/01/26 01:03:19;;;;;;;10.23;2.85;;;1.80;99.90;;;;;;5102093;28;20485;-69
2021/01/26 01:05:46;;;;;;;7.30;2.58;;;1.80;99.90;;;;;;5130419;27;20043;-69
2021/01/26 01:08:16;;;;;;;5.07;2.40;;;1.70;99.90;;;;;;5135234;27;20055;-69
2021/01/26 01:10:52;;;;;;;8.23;3.45;;;1.70;99.90;;;;;;5119935;27;20149;-69
2021/01/26 01:13:48;;;;;;;4.22;2.33;;;1.70;99.90;;;;;;5128815;27;20402;-69
2021/01/26 01:16:20;;;;;;;6.43;3.60;;;1.70;99.90;;;;;;5135902;27;20039;-69
2021/01/26 01:23:17;;;;;;;6.25;3.60;;;1.60;99.90;;;;;;5135109;27;20503;-69
2021/01/26 01:25:49;;;;;;;4.90;2.72;;;1.60;99.90;;;;;;5136022;27;20095;-69
2021/01/26 01:28:42;;;;;;;6.30;2.55;;;1.50;99.90;;;;;;5135987;27;20049;-69
2021/01/26 01:31:28;;;;;;;4.60;2.33;;;1.60;99.90;;;;;;5125120;27;20129;-69
2021/01/26 01:38:21;;;;;;;4.00;2.50;;;1.50;99.90;;;;;;5129605;27;20339;-69
2021/01/26 01:40:57;;;;;;;4.25;2.20;;;1.50;99.90;;;;;;5124490;27;20043;-68
2021/01/26 01:43:22;;;;;;;4.75;2.75;;;1.60;99.90;;;;;;5135066;27;20393;-69
2021/01/26 01:45:51;;;;;;;5.70;2.50;;;1.60;99.90;;;;;;5135374;27;20051;-69
2021/01/26 01:48:27;;;;;;;6.35;3.25;;;1.60;99.90;;;;;;5135697;27;20074;-69
2021/01/26 01:51:08;;;;;;;4.72;2.50;;;1.70;99.90;;;;;;5128378;27;20082;-69
2021/01/26 01:54:03;;;;;;;7.80;3.60;;;1.70;99.90;;;;;;5135184;27;20042;-69
2021/01/26 01:56:42;;;;;;;6.57;3.67;;;1.70;99.90;;;;;;5082788;27;20059;-69
2021/01/26 02:03:22;;;;;;;5.53;2.63;;;1.70;99.90;;;;;;5135137;27;20111;-69
2021/01/26 02:05:53;;;;;;;8.18;4.30;;;1.80;99.90;;;;;;5121165;27;20035;-69
2021/01/26 02:08:26;;;;;;;6.28;3.72;;;1.70;99.90;;;;;;5126468;27;20059;-69
2021/01/26 02:10:58;;;;;;;7.13;4.18;;;1.80;99.90;;;;;;5134813;27;20088;-69
2021/01/26 02:13:24;;;;;;;5.82;3.17;;;1.80;99.90;;;;;;5135101;27;20478;-69
2021/01/26 02:16:00;;;;;;;9.68;4.45;;;1.80;99.90;;;;;;5076077;28;20533;-69
2021/01/26 02:26:28;;;;;;;9.40;4.82;;;1.80;99.90;;;;;;5134761;27;20034;-68
2021/01/26 02:29:05;;;;;;;8.48;4.72;;;1.80;99.90;;;;;;5102088;27;20139;-68
2021/01/26 02:35:55;;;;;;;9.95;4.20;;;1.90;99.90;;;;;;5128850;27;20050;-69
2021/01/26 02:38:58;;;;;;;10.98;5.55;;;1.90;99.90;;;;;;5125751;27;20039;-69
2021/01/26 02:42:03;;;;;;;9.13;4.93;;;1.90;99.90;;;;;;5103397;27;20130;-69
2021/01/26 02:56:05;;;;;;;12.77;6.43;;;1.90;99.90;;;;;;5133570;27;20029;-69
2021/01/26 02:58:50;;;;;;;11.55;5.45;;;2.00;99.90;;;;;;5095101;27;20131;-69
2021/01/26 03:08:40;;;;;;;11.20;5.20;;;2.00;99.90;;;;;;5125205;28;20130;-70
2021/01/26 03:11:16;;;;;;;12.55;5.68;;;2.00;99.90;;;;;;5130013;28;20505;-70
2021/01/26 03:21:02;;;;;;;7.32;4.03;;;2.00;99.90;;;;;;5134086;28;20099;-70
2021/01/26 03:23:55;;;;;;;7.75;4.38;;;2.20;99.90;;;;;;5115959;28;20047;-70
2021/01/26 03:26:40;;;;;;;8.15;3.53;;;2.10;99.90;;;;;;5133876;28;20066;-69
2021/01/26 03:33:30;;;;;;;5.43;3.00;;;2.10;99.90;;;;;;5118843;28;20035;-70
2021/01/26 03:36:05;;;;;;;6.00;3.22;;;2.10;99.90;;;;;;5112776;28;20043;-70
2021/01/26 03:38:34;;;;;;;7.55;3.70;;;2.20;99.90;;;;;;5115023;28;20042;-70
2021/01/26 03:41:04;;;;;;;6.20;3.10;;;2.20;99.90;;;;;;5125579;28;20071;-70
2021/01/26 03:43:33;;;;;;;6.40;3.40;;;2.20;99.90;;;;;;5134136;28;20111;-70
2021/01/26 03:56:49;;;;;;;4.70;2.30;;;2.30;99.90;;;;;;5100528;28;20039;-69
2021/01/26 03:59:24;;;;;;;4.85;2.88;;;2.30;99.90;;;;;;5133529;28;20035;-69
2021/01/26 04:09:16;;;;;;;5.47;2.88;;;2.30;99.90;;;;;;5079298;28;20051;-69
2021/01/26 04:16:05;;;;;;;4.45;2.33;;;2.40;99.90;;;;;;5137087;27;20054;-69
2021/01/26 04:18:42;;;;;;;4.55;2.60;;;2.30;99.90;;;;;;5118825;27;20076;-69
2021/01/26 04:21:10;;;;;;;5.93;3.05;;;2.40;99.90;;;;;;5118960;27;20067;-69
2021/01/26 04:23:55;;;;;;;6.10;2.47;;;2.30;99.90;;;;;;5135148;27;20043;-68
2021/01/26 04:26:32;;;;;;;4.25;2.38;;;2.30;99.90;;;;;;5131860;27;20045;-68
2021/01/26 04:36:15;;;;;;;4.13;1.98;;;2.40;99.90;;;;;;5132307;27;20043;-68
2021/01/26 04:38:41;;;;;;;4.47;2.15;;;2.40;99.90;;;;;;5127011;27;20394;-68
2021/01/26 04:41:33;;;;;;;6.75;2.30;;;2.40;99.90;;;;;;5136565;27;20145;-68
2021/01/26 04:44:37;;;;;;;7.75;2.38;;;2.40;99.90;;;;;;5136386;27;20066;-68
2021/01/26 04:51:22;;;;;;;4.88;1.95;;;2.50;99.90;;;;;;5131814;27;20038;-68
2021/01/26 04:54:04;;;;;;;3.97;1.98;;;2.50;99.90;;;;;;5120992;27;20049;-68
2021/01/26 04:56:35;;;;;;;4.32;2.15;;;2.50;99.90;;;;;;5129638;27;20043;-68
2021/01/26 04:59:38;;;;;;;4.43;2.03;;;2.60;99.90;;;;;;5136355;27;20391;-68
2021/01/26 05:06:19;;;;;;;3.47;1.30;;;2.60;99.90;;;;;;5130326;27;20038;-68
2021/01/26 05:09:16;;;;;;;3.25;1.70;;;2.60;99.90;;;;;;5093535;28;20048;-68
2021/01/26 05:19:17;;;;;;;3.92;1.85;;;2.60;99.90;;;;;;5077394;28;20377;-68
2021/01/26 05:21:52;;;;;;;3.17;1.40;;;2.60;99.90;;;;;;5092020;28;20041;-68
2021/01/26 05:28:52;;;;;;;7.82;2.38;;;2.60;99.90;;;;;;5088042;28;20035;-68
2021/01/26 05:31:28;;;;;;;4.10;1.90;;;2.60;99.90;;;;;;5086678;28;20043;-68
2021/01/26 05:34:24;;;;;;;3.42;1.77;;;2.60;99.90;;;;;;5080748;28;20048;-68
2021/01/26 05:40:38;;;;;;;4.30;1.80;;;2.60;99.90;;;;;;5086278;28;20090;-68
2021/01/26 05:43:52;;;;;;;5.47;2.13;;;2.50;99.90;;;;;;5080071;28;20067;-68
2021/01/26 05:46:34;;;;;;;2.92;1.60;;;2.60;99.90;;;;;;5088069;28;20052;-68
2021/01/26 05:49:33;;;;;;;4.28;2.15;;;2.50;99.90;;;;;;5069933;28;20048;-68
2021/01/26 05:52:09;;;;;;;5.18;2.28;;;2.50;99.90;;;;;;5058621;28;20049;-68
2021/01/26 05:58:52;;;;;;;5.68;1.90;;;2.50;99.90;;;;;;5078411;28;20035;-69
2021/01/26 06:05:16;;;;;;;4.05;2.00;;;2.60;99.90;;;;;;5078327;28;20391;-68
2021/01/26 06:08:12;;;;;;;4.47;2.40;;;2.50;99.90;;;;;;5088558;28;20042;-68
2021/01/26 06:10:44;;;;;;;3.47;1.92;;;2.50;99.90;;;;;;5100185;28;20143;-68
2021/01/26 06:17:08;;;;;;;3.92;2.03;;;2.40;99.90;;;;;;5114054;28;20034;-68
2021/01/26 06:20:08;;;;;;;3.00;1.70;;;2.30;99.90;;;;;;5114062;28;20109;-68
2021/01/26 06:22:40;;;;;;;4.07;2.08;;;2.30;99.90;;;;;;5103680;28;20475;-68
2021/01/26 06:25:19;;;;;;;4.50;2.08;;;2.20;99.90;;;;;;5114670;28;20071;-68
2021/01/26 06:28:22;;;;;;;4.35;2.00;;;2.20;99.90;;;;;;5113914;28;20445;-68
2021/01/26 06:35:07;;;;;;;4.07;2.05;;;2.10;99.90;;;;;;5114063;28;20391;-68
2021/01/26 06:37:45;;;;;;;4.00;1.98;;;2.10;99.90;;;;;;5114523;28;20182;-68
2021/01/26 06:41:01;;;;;;;3.50;1.83;;;2.10;99.90;;;;;;5113774;28;20475;-68
2021/01/26 06:51:11;;;;;;;4.97;2.40;;;2.10;99.90;;;;;;5081351;28;20229;-69
2021/01/26 07:01:25;;;;;;;4.95;2.30;;;2.10;99.90;;;;;;5075360;28;20043;-68
2021/01/26 07:07:50;;;;;;;5.35;2.40;;;2.10;99.90;;;;;;5108800;28;20058;-69
2021/01/26 07:10:45;;;;;;;5.25;2.47;;;2.10;99.90;;;;;;5072920;28;20416;-68
2021/01/26 07:13:41;;;;;;;7.60;3.20;;;2.00;99.90;;;;;;5097547;28;20047;-68
2021/01/26 07:20:21;;;;;;;3.95;1.95;;;2.00;99.90;;;;;;5132108;28;20100;-68
2021/01/26 07:22:57;;;;;;;4.95;2.35;;;2.00;99.90;;;;;;5133990;28;20049;-68
2021/01/26 07:25:40;;;;;;;6.30;2.72;;;1.90;99.90;;;;;;5096039;28;20039;-67
2021/01/26 07:32:41;;;;;;;5.15;2.35;;;1.90;99.90;;;;;;5133856;28;20092;-65
2021/01/26 07:35:28;;;;;;;4.97;2.47;;;1.90;99.90;;;;;;5108722;28;20047;-65
2021/01/26 07:41:41;;;;;;;5.82;2.78;;;1.80;99.90;;;;;;5128342;27;20082;-64
2021/01/26 07:48:06;;;;;;;6.40;2.70;;;1.80;99.90;;;;;;5119386;27;20055;-65
2021/01/26 07:51:02;;;;;;;5.95;2.20;;;1.90;99.90;;;;;;5100989;27;20047;-63
2021/01/26 07:57:09;;;;;;;5.90;2.17;;;1.80;99.90;;;;;;5125162;27;20043;-64
2021/01/26 08:02:54;;;;;;;7.35;2.88;;;1.80;99.90;;;;;;5112330;28;20085;-64
2021/01/26 08:05:47;;;;;;;5.78;3.00;;;1.80;99.90;;;;;;5097882;27;20139;-64
2021/01/26 08:08:29;;;;;;;6.35;2.70;;;1.80;99.90;;;;;;5119057;27;20050;-65
2021/01/26 08:11:04;;;;;;;6.07;2.53;;;1.80;99.90;;;;;;5102890;27;20113;-65
2021/01/26 08:13:53;;;;;;;5.00;2.45;;;1.80;99.90;;;;;;5137178;27;20394;-64
2021/01/26 08:17:01;;;;;;;5.10;2.67;;;1.80;99.90;;;;;;5137391;27;20482;-65
2021/01/26 08:20:22;;;;;;;5.22;2.40;;;1.90;99.90;;;;;;5131705;27;20035;-65
2021/01/26 08:23:02;;;;;;;6.13;2.47;;;1.80;99.90;;;;;;5137262;27;20035;-64
2021/01/26 08:33:29;;;;;;;7.25;2.45;;;1.90;99.90;;;;;;5136272;27;20050;-65
2021/01/26 08:40:25;;;;;;;5.70;2.53;;;1.90;99.90;;;;;;5130138;27;20087;-66
2021/01/26 08:43:07;;;;;;;6.82;2.85;;;1.90;99.90;;;;;;5125763;27;20100;-66
2021/01/26 08:45:58;;;;;;;6.25;2.50;;;1.90;99.90;;;;;;5136308;27;20095;-65
2021/01/26 08:48:33;;;;;;;7.35;2.42;;;1.90;99.90;;;;;;5118310;27;20052;-68
2021/01/26 08:51:11;;;;;;;5.25;2.80;;;2.00;99.90;;;;;;5105552;27;20071;-67
2021/01/26 08:57:54;;;;;;;5.95;2.70;;;1.90;99.90;;;;;;5130924;27;20034;-67
2021/01/26 09:00:39;;;;;;;6.97;2.78;;;2.00;99.90;;;;;;5125238;27;20076;-67
2021/01/26 09:03:43;;;;;;;5.72;2.65;;;2.00;99.90;;;;;;5098231;27;20122;-66
2021/01/26 09:29:11;;;;;;;5.53;2.20;;;2.30;99.90;;;;;;6102755;22;20028;-72
2021/01/26 09:36:02;;;;;;;5.22;2.60;;;2.30;99.90;;;;;;4956421;29;20401;-71
2021/01/26 09:38:58;;;;;;;14.15;4.80;;;2.50;99.90;;;;;;4952884;29;20110;-71
2021/01/26 09:41:37;;;;;;;8.95;3.55;;;2.60;99.90;;;;;;4968948;28;20075;-71
2021/01/26 09:44:17;;;;;;;6.68;2.95;;;2.90;99.90;;;;;;4956202;29;20098;-69
2021/01/26 09:46:49;;;;;;;6.95;2.60;;;2.90;99.90;;;;;;4954874;29;20474;-70
2021/01/26 09:53:19;;;;;;;4.60;2.20;;;3.00;99.90;;;;;;4955955;29;20042;-72
2021/01/26 09:55:55;;;;;;;7.00;2.28;;;3.10;99.90;;;;;;4971274;28;20482;-70
2021/01/26 09:58:26;;;;;;;5.50;2.20;;;3.10;99.90;;;;;;4956378;28;20039;-72
2021/01/26 10:00:59;;;;;;;3.53;2.13;;;3.20;99.90;;;;;;4956260;28;20044;-72
2021/01/26 10:03:32;;;;;;;5.68;2.33;;;3.30;99.90;;;;;;4955860;28;20043;-71
2021/01/26 10:13:31;;;;;;;5.25;2.65;;;3.50;99.90;;;;;;4955553;29;20039;-72
2021/01/26 10:16:19;;;;;;;5.28;2.67;;;3.50;99.90;;;;;;4961505;28;20043;-72
2021/01/26 10:18:51;;;;;;;3.30;1.55;;;3.40;99.90;;;;;;4955588;29;20410;-72
2021/01/26 10:21:27;;;;;;;7.82;2.10;;;3.40;99.90;;;;;;4955574;28;20149;-72
2021/01/26 10:24:27;;;;;;;6.25;2.50;;;3.40;99.90;;;;;;4954439;29;20055;-73
2021/01/26 10:30:55;;;;;;;3.08;1.60;;;3.30;99.90;;;;;;4964523;28;20054;-74
2021/01/26 10:41:08;;;;;;;2.78;1.27;;;3.20;99.90;;;;;;4974481;28;20049;-73
2021/01/26 10:43:41;;;;;;;2.55;1.38;;;3.10;99.90;;;;;;4974964;28;20039;-70
2021/01/26 10:46:47;;;;;;;3.55;1.70;;;3.10;99.90;;;;;;4975206;28;20061;-72
2021/01/26 10:53:31;;;;;;;7.32;1.50;;;3.20;99.90;;;;;;4877522;29;20209;-74
2021/01/26 10:55:57;;;;;;;4.43;1.87;;;3.20;99.90;;;;;;4873547;29;20060;-74
2021/01/26 10:58:29;;;;;;;7.32;2.00;;;3.30;99.90;;;;;;4877565;29;20294;-72
2021/01/26 11:01:03;;;;;;;5.97;2.03;;;3.20;99.90;;;;;;4923320;28;20055;-72
2021/01/26 11:03:55;;;;;;;4.35;2.08;;;3.20;99.90;;;;;;4974393;28;20043;-71
2021/01/26 11:06:27;;;;;;;4.35;2.05;;;3.30;99.90;;;;;;4959015;28;20185;-70
2021/01/26 11:08:55;;;;;;;4.88;1.70;;;3.30;99.90;;;;;;4974910;28;20050;-71
2021/01/26 11:11:34;;;;;;;5.38;1.70;;;3.30;99.90;;;;;;4975288;28;20051;-72
2021/01/26 11:14:08;;;;;;;7.60;1.70;;;3.30;99.90;;;;;;4960171;28;20058;-75
2021/01/26 11:17:04;;;;;;;3.55;1.67;;;3.40;99.90;;;;;;4976068;28;20444;-70
2021/01/26 11:23:26;;;;;;;4.93;1.80;;;3.40;99.90;;;;;;4978545;28;20054;-70
2021/01/26 11:33:43;;;;;;;;;;;3.50;99.90;;;;;;4977375;28;20183;-77
2021/01/26 11:36:24;;;;;;;3.65;1.58;;;3.50;99.90;;;;;;4976895;28;19922;-74
2021/01/26 11:39:01;;;;;;;4.38;1.55;;;3.60;99.90;;;;;;4961675;28;20142;-74
2021/01/26 11:45:57;;;;;;;2.88;1.63;;;3.70;99.90;;;;;;4977693;28;20034;-74
2021/01/26 11:56:12;;;;;;;4.38;1.10;;;3.80;99.90;;;;;;4854907;29;20484;-71
2021/01/26 11:58:48;;;;;;;3.38;1.30;;;3.90;99.90;;;;;;4861941;29;20140;-74
2021/01/26 12:01:35;;;;;;;5.10;1.38;;;4.00;99.90;;;;;;4861685;29;20071;-73
2021/01/26 12:04:09;;;;;;;2.10;1.15;;;3.90;99.90;;;;;;4850504;29;20060;-72
2021/01/26 12:06:37;;;;;;;2.30;1.20;;;3.90;99.90;;;;;;4878707;29;20053;-67
2021/01/26 12:09:13;;;;;;;3.17;1.20;;;3.90;99.90;;;;;;4880323;29;20044;-71
2021/01/26 12:11:46;;;;;;;2.42;1.10;;;4.00;99.90;;;;;;4865415;29;20128;-75
2021/01/26 12:14:28;;;;;;;3.58;1.00;;;4.10;99.90;;;;;;4880269;29;20052;-73
2021/01/26 12:17:06;;;;;;;2.08;1.27;;;4.10;99.90;;;;;;4864897;29;20143;-72
2021/01/26 12:26:33;;;;;;;1.73;0.77;;;4.10;99.90;;;;;;4977273;28;20042;-72
2021/01/26 12:29:06;;;;;;;3.03;1.40;;;4.20;99.90;;;;;;4976561;28;20043;-73
2021/01/26 12:31:33;;;;;;;6.30;1.17;;;4.30;99.90;;;;;;4968411;28;20061;-71
2021/01/26 12:34:22;;;;;;;4.22;1.45;;;4.40;99.90;;;;;;4971288;28;20074;-71
2021/01/26 12:36:56;;;;;;;3.33;0.90;;;4.40;99.90;;;;;;4959839;28;20047;-70
2021/01/26 12:46:44;;;;;;;1.73;1.00;;;4.60;99.90;;;;;;4976502;28;20043;-74
2021/01/26 12:49:17;;;;;;;4.93;1.23;;;4.60;99.90;;;;;;4975507;28;20034;-73
2021/01/26 12:51:48;;;;;;;4.40;1.10;;;4.60;99.90;;;;;;4960157;28;20039;-73
2021/01/26 12:54:17;;;;;;;2.75;0.98;;;4.70;99.90;;;;;;4959402;28;20039;-73
2021/01/26 12:56:44;;;;;;;2.55;0.90;;;4.70;99.90;;;;;;4976489;28;20046;-73
2021/01/26 12:59:24;;;;;;;3.10;1.17;;;4.70;99.90;;;;;;4977021;28;20066;-71
2021/01/26 13:01:52;;;;;;;3.25;1.13;;;4.80;99.90;;;;;;4976079;28;20043;-73
2021/01/26 13:08:28;;;;;;;1.20;0.73;;;4.80;99.90;;;;;;4976319;28;20033;-72
2021/01/26 13:11:44;;;;;;;1.40;0.70;;;4.80;99.90;;;;;;4954641;28;20043;-73
2021/01/26 13:14:13;;;;;;;4.15;1.40;;;4.80;99.90;;;;;;4973948;28;20295;-75
2021/01/26 13:16:45;;;;;;;2.92;1.33;;;4.80;99.90;;;;;;4956995;29;20047;-72
2021/01/26 13:19:16;;;;;;;2.53;0.82;;;4.70;99.90;;;;;;4969709;28;20046;-75
2021/01/26 13:21:51;;;;;;;2.60;1.00;;;4.80;99.90;;;;;;4970951;28;20482;-73
2021/01/26 13:24:23;;;;;;;2.20;0.98;;;4.80;99.90;;;;;;4975715;28;20049;-72
2021/01/26 13:41:41;;;;;;;3.25;0.80;;;4.90;99.90;;;;;;4957111;28;20047;-73
2021/01/26 13:44:16;;;;;;;4.72;0.93;;;5.00;99.90;;;;;;4974540;28;20500;-73
2021/01/26 13:51:01;;;;;;;2.35;1.00;;;5.00;99.90;;;;;;4975414;28;20501;-73
2021/01/26 13:53:41;;;;;;;1.50;0.65;;;5.10;99.90;;;;;;4975290;28;20049;-74
2021/01/26 13:56:43;;;;;;;4.32;1.00;;;5.00;99.90;;;;;;4958140;28;20043;-74
2021/01/26 14:03:31;;;;;;;3.40;0.60;;;5.20;99.90;;;;;;4975206;28;20105;-74
2021/01/26 14:06:04;;;;;;;2.13;0.77;;;5.10;99.90;;;;;;4975654;28;20042;-74
2021/01/26 14:08:35;;;;;;;1.17;0.68;;;5.20;99.90;;;;;;4958074;28;20051;-72
2021/01/26 14:11:01;;;;;;;3.00;0.95;;;5.30;99.90;;;;;;4957891;28;20057;-73
2021/01/26 14:13:34;;;;;;;2.45;0.88;;;5.20;99.90;;;;;;4975357;28;20072;-73
2021/01/26 14:16:38;;;;;;;1.73;0.80;;;5.10;99.90;;;;;;4969338;28;20042;-73
2021/01/26 14:23:26;;;;;;;4.93;1.15;;;5.10;99.90;;;;;;4974983;28;20049;-73
2021/01/26 14:26:05;;;;;;;2.28;1.00;;;5.10;99.90;;;;;;4975482;28;20050;-73
2021/01/26 14:28:36;;;;;;;3.78;1.40;;;5.00;99.90;;;;;;4969702;28;20046;-74
2021/01/26 14:31:09;;;;;;;5.03;1.30;;;5.10;99.90;;;;;;4974490;28;20043;-74
2021/01/26 14:33:37;;;;;;;3.30;1.23;;;5.00;99.90;;;;;;4974657;28;20112;-74
2021/01/26 14:36:08;;;;;;;2.42;1.00;;;5.10;99.90;;;;;;4974809;28;20043;-73
2021/01/26 14:38:37;;;;;;;1.83;1.05;;;5.10;99.90;;;;;;4956709;28;20379;-74
2021/01/26 14:41:09;;;;;;;3.45;1.08;;;5.00;99.90;;;;;;4938737;28;20126;-73
2021/01/26 14:43:43;;;;;;;3.88;1.00;;;5.00;99.90;;;;;;4974440;28;20049;-73
2021/01/26 14:46:09;;;;;;;4.63;0.93;;;5.00;99.90;;;;;;4939521;28;20047;-73
2021/01/26 14:48:41;;;;;;;6.07;1.55;;;5.00;99.90;;;;;;4957206;28;20038;-74
2021/01/26 14:51:46;;;;;;;3.80;1.00;;;5.00;99.90;;;;;;4974151;28;20368;-72
2021/01/26 14:54:18;;;;;;;2.17;0.88;;;5.00;99.90;;;;;;4975031;28;20046;-73
2021/01/26 14:56:55;;;;;;;3.30;1.00;;;5.00;99.90;;;;;;4966856;28;20043;-73
2021/01/26 14:59:27;;;;;;;3.00;0.90;;;5.10;99.90;;;;;;4961889;28;20065;-73
2021/01/26 15:02:03;;;;;;;2.75;1.10;;;5.00;99.90;;;;;;4974331;28;20399;-73
2021/01/26 15:09:01;;;;;;;2.00;0.80;;;5.00;99.90;;;;;;4974409;28;20155;-72
2021/01/26 15:11:58;;;;;;;1.98;1.00;;;5.00;99.90;;;;;;4967386;28;20508;-72
2021/01/26 15:18:39;;;;;;;7.15;0.95;;;4.90;99.90;;;;;;4973928;28;20033;-72
2021/01/26 15:21:10;;;;;;;5.40;1.40;;;4.90;99.90;;;;;;4972678;28;20130;-73
2021/01/26 15:23:43;;;;;;;2.60;1.30;;;4.90;99.90;;;;;;4974280;28;20043;-73
2021/01/26 15:26:10;;;;;;;4.72;1.40;;;4.90;99.90;;;;;;4974649;28;20043;-71
2021/01/26 15:28:45;;;;;;;5.53;1.08;;;4.80;99.90;;;;;;4974713;28;20114;-71
2021/01/26 15:31:20;;;;;;;3.10;1.17;;;4.80;99.90;;;;;;4973153;28;20062;-72
2021/01/26 15:34:16;;;;;;;2.33;0.90;;;4.80;99.90;;;;;;4955928;28;20066;-72
2021/01/26 15:41:05;;;;;;;3.72;0.88;;;4.70;99.90;;;;;;4968945;28;20050;-72
2021/01/26 15:43:38;;;;;;;3.88;0.80;;;4.70;99.90;;;;;;4974000;28;20046;-71
2021/01/26 15:46:10;;;;;;;2.72;1.00;;;4.70;99.90;;;;;;4974130;28;20401;-71
2021/01/26 15:49:03;;;;;;;3.60;0.73;;;4.60;99.90;;;;;;4974788;28;20126;-71
2021/01/26 15:51:48;;;;;;;2.33;0.80;;;4.60;99.90;;;;;;4969443;28;20486;-70
2021/01/26 15:54:20;;;;;;;3.20;0.65;;;4.60;99.90;;;;;;4974790;28;20413;-71
2021/01/26 16:01:05;;;;;;;3.63;1.17;;;4.50;99.90;;;;;;4973643;28;20097;-69
2021/01/26 16:03:32;;;;;;;3.42;0.77;;;4.50;99.90;;;;;;4956209;28;20055;-71
2021/01/26 16:06:09;;;;;;;3.17;0.77;;;4.50;99.90;;;;;;4977682;28;20046;-71
2021/01/26 16:08:38;;;;;;;3.85;0.93;;;4.50;99.90;;;;;;4960222;28;20055;-71
2021/01/26 16:11:17;;;;;;;2.33;0.50;;;4.40;99.90;;;;;;4955971;28;20101;-70
2021/01/26 16:13:56;;;;;;;2.47;0.60;;;4.30;99.90;;;;;;4942214;28;20154;-71
2021/01/26 16:16:31;;;;;;;2.35;0.80;;;4.30;99.90;;;;;;4977376;28;20474;-72
2021/01/26 16:19:11;;;;;;;6.05;1.27;;;4.20;99.90;;;;;;4960857;28;20457;-71
2021/01/26 16:21:43;;;;;;;1.83;0.93;;;4.20;99.90;;;;;;4976572;28;20039;-72
2021/01/26 16:24:10;;;;;;;1.60;0.90;;;4.20;99.90;;;;;;4960586;28;20073;-72
2021/01/26 16:26:50;;;;;;;1.60;0.80;;;4.10;99.90;;;;;;4976978;28;20039;-71
2021/01/26 16:33:48;;;;;;;2.60;0.73;;;4.00;99.90;;;;;;4975686;28;20062;-72
2021/01/26 16:36:40;;;;;;;1.42;0.57;;;4.00;99.90;;;;;;4976891;28;20039;-71
2021/01/26 16:39:13;;;;;;;1.48;0.80;;;3.90;99.90;;;;;;4975504;28;20093;-72
2021/01/26 16:41:47;;;;;;;2.58;1.00;;;3.90;99.90;;;;;;4976019;28;20073;-73
2021/01/26 16:44:19;;;;;;;2.13;0.77;;;3.90;99.90;;;;;;4976872;28;20043;-73
2021/01/26 16:51:08;;;;;;;4.15;1.60;;;3.80;99.90;;;;;;4976682;28;20061;-72
2021/01/26 16:58:35;;;;;;;4.22;1.35;;;3.80;99.90;;;;;;4966647;28;20389;-72
2021/01/26 17:01:06;;;;;;;1.85;0.82;;;3.80;99.90;;;;;;4976415;28;20113;-69
2021/01/26 17:03:37;;;;;;;2.70;0.80;;;3.80;99.90;;;;;;4971745;28;20039;-72
2021/01/26 17:06:25;;;;;;;2.25;0.93;;;3.80;99.90;;;;;;4939784;28;20039;-70
2021/01/26 17:09:12;;;;;;;3.53;1.13;;;3.80;99.90;;;;;;4961587;28;20046;-71
2021/01/26 17:16:05;;;;;;;3.50;1.02;;;3.70;99.90;;;;;;4976095;28;20386;-74
2021/01/26 17:18:53;;;;;;;3.30;0.75;;;3.70;99.90;;;;;;4976301;28;20121;-71
2021/01/26 17:21:44;;;;;;;1.85;0.70;;;3.70;99.90;;;;;;4976173;28;20038;-74
2021/01/26 17:31:27;;;;;;;1.75;0.50;;;3.60;99.90;;;;;;4971818;28;20046;-71
2021/01/26 17:34:11;;;;;;;3.25;0.90;;;3.60;99.90;;;;;;4951018;28;20087;-71
2021/01/26 17:36:58;;;;;;;2.22;0.70;;;3.60;99.90;;;;;;4939948;29;20414;-72
2021/01/26 17:43:39;;;;;;;1.67;0.65;;;3.60;99.90;;;;;;4956356;29;20050;-72
2021/01/26 17:46:11;;;;;;;3.05;0.70;;;3.60;99.90;;;;;;4955080;29;20051;-73
2021/01/26 17:48:53;;;;;;;3.40;1.30;;;3.60;99.90;;;;;;4956158;29;20051;-73
2021/01/26 17:51:26;;;;;;;4.97;1.55;;;3.60;99.90;;;;;;4955883;29;20075;-75
2021/01/26 17:53:54;;;;;;;3.67;1.08;;;3.50;99.90;;;;;;4937910;29;20057;-73
2021/01/26 17:56:53;;;;;;;2.47;0.98;;;3.50;99.90;;;;;;4938361;29;20127;-71
2021/01/26 17:59:19;;;;;;;1.30;0.80;;;3.50;99.90;;;;;;4942408;29;20043;-72
2021/01/26 18:01:51;;;;;;;2.22;0.90;;;3.50;99.90;;;;;;4956383;28;20134;-72
2021/01/26 18:08:37;;;;;;;3.33;0.90;;;3.50;99.90;;;;;;4955982;29;20545;-69
2021/01/26 18:11:09;;;;;;;1.88;0.73;;;3.50;99.90;;;;;;4954305;29;20043;-70
2021/01/26 18:21:13;;;;;;;2.45;0.93;;;3.40;99.90;;;;;;4955715;29;20049;-74
2021/01/26 18:23:42;;;;;;;3.75;0.80;;;3.50;99.90;;;;;;4956406;28;20126;-70
2021/01/26 18:26:10;;;;;;;2.08;0.80;;;3.40;99.90;;;;;;4956017;28;20066;-71
2021/01/26 18:29:04;;;;;;;6.07;1.27;;;3.40;99.90;;;;;;4970171;28;20043;-72
2021/01/26 18:31:57;;;;;;;2.50;0.80;;;3.40;99.90;;;;;;4953930;29;20283;-73
2021/01/26 18:34:31;;;;;;;1.20;0.73;;;3.30;99.90;;;;;;4974440;28;20054;-73
2021/01/26 18:37:27;;;;;;;2.53;0.90;;;3.40;99.90;;;;;;4957513;28;20414;-73
2021/01/26 18:40:03;;;;;;;2.20;0.95;;;3.40;99.90;;;;;;4974711;28;20047;-72
2021/01/26 18:46:12;;;;;;;2.58;0.85;;;3.30;99.90;;;;;;4973455;28;20045;-71
2021/01/26 18:48:43;;;;;;;3.55;1.27;;;3.30;99.90;;;;;;4974746;28;20043;-71
2021/01/26 18:51:47;;;;;;;3.40;1.05;;;3.40;99.90;;;;;;4958094;28;20047;-70
2021/01/26 18:58:44;;;;;;;3.00;1.17;;;3.20;99.90;;;;;;4974536;28;20033;-71
2021/01/26 19:01:21;;;;;;;3.60;1.17;;;3.20;99.90;;;;;;4974737;28;20081;-71
2021/01/26 19:03:55;;;;;;;5.60;1.10;;;3.10;99.90;;;;;;4974572;28;20051;-70
2021/01/26 19:06:27;;;;;;;1.92;1.17;;;3.10;99.90;;;;;;4953696;28;20454;-72
2021/01/26 19:09:06;;;;;;;;;;;3.20;99.90;;;;;;4974706;28;20043;-72
2021/01/26 19:11:51;;;;;;;2.58;1.13;;;3.10;99.90;;;;;;4957140;28;19984;-73
2021/01/26 19:18:41;;;;;;;4.20;1.63;;;3.00;99.90;;;;;;4969104;28;20158;-72
2021/01/26 19:21:22;;;;;;;4.55;1.83;;;3.00;99.90;;;;;;4971473;28;20094;-73
2021/01/26 19:24:24;;;;;;;8.32;2.28;;;3.10;99.90;;;;;;4952177;28;20512;-71
2021/01/26 19:31:17;;;;;;;5.82;2.28;;;3.00;99.90;;;;;;4974088;28;20070;-72
2021/01/26 19:33:43;;;;;;;7.05;2.83;;;2.90;99.90;;;;;;4973923;28;20055;-72
2021/01/26 19:36:15;;;;;;;8.00;3.28;;;2.80;99.90;;;;;;4974457;28;20047;-72
2021/01/26 19:38:43;;;;;;;5.40;2.80;;;3.00;99.90;;;;;;4977468;28;20078;-73
2021/01/26 19:41:16;;;;;;;7.25;2.88;;;2.80;99.90;;;;;;4958740;29;20054;-73
2021/01/26 19:43:44;;;;;;;5.80;2.50;;;2.80;99.90;;;;;;4958802;29;20483;-73
2021/01/26 19:46:15;;;;;;;5.60;2.08;;;2.80;99.90;;;;;;4977133;28;20047;-74
2021/01/26 19:48:48;;;;;;;5.07;2.40;;;2.80;99.90;;;;;;4977991;28;20125;-74
2021/01/26 19:55:00;;;;;;;6.07;2.50;;;2.80;99.90;;;;;;4977941;28;20066;-73
2021/01/26 20:05:05;;;;;;;5.40;2.30;;;2.80;99.90;;;;;;4961864;28;20573;-73
2021/01/26 20:07:49;;;;;;;7.72;2.53;;;2.90;99.90;;;;;;4977577;28;20046;-71
2021/01/26 20:10:37;;;;;;;6.05;1.88;;;2.90;99.90;;;;;;4977223;28;20043;-72
2021/01/26 20:13:21;;;;;;;7.45;3.13;;;2.90;99.90;;;;;;4977277;28;20043;-70
2021/01/26 20:19:52;;;;;;;7.00;3.30;;;2.90;99.90;;;;;;4977192;28;20101;-70
2021/01/26 20:22:19;;;;;;;11.60;3.75;;;2.90;99.90;;;;;;4977226;28;20051;-71
2021/01/26 20:25:18;;;;;;;9.30;4.05;;;2.90;99.90;;;;;;4959916;28;20051;-73
2021/01/26 20:27:58;;;;;;;12.38;4.55;;;2.90;99.90;;;;;;4961585;28;20461;-72
2021/01/26 20:30:38;;;;;;;9.07;4.10;;;2.90;99.90;;;;;;4945871;28;20039;-73
2021/01/26 20:33:05;;;;;;;10.43;3.83;;;2.90;99.90;;;;;;4956267;29;20071;-73
2021/01/26 20:35:55;;;;;;;10.98;4.35;;;2.80;99.90;;;;;;4957324;28;20511;-72
2021/01/26 20:42:17;;;;;;;9.45;4.18;;;2.80;99.90;;;;;;4955243;29;20524;-72
2021/01/26 20:44:55;;;;;;;13.82;4.53;;;2.90;99.90;;;;;;4953133;29;20439;-72
2021/01/26 20:47:22;;;;;;;15.77;5.40;;;2.90;99.90;;;;;;4952721;29;20094;-72
2021/01/26 20:49:54;;;;;;;14.27;5.50;;;2.90;99.90;;;;;;4955664;28;20050;-72
2021/01/26 20:52:32;;;;;;;15.25;5.57;;;2.80;99.90;;;;;;4938547;29;20047;-72